createdAt,value
2023-01-13T00:04:58.493Z,5.03
2023-01-13T00:10:01.082Z,4.60
2023-01-13T00:15:06.041Z,4.33
2023-01-13T00:20:10.521Z,4.27
2023-01-13T00:25:13.071Z,4.17
2023-01-13T00:30:15.730Z,4.20
2023-01-13T00:35:18.351Z,4.50
2023-01-13T00:40:20.916Z,4.10
2023-01-13T00:45:24.016Z,4.10
2023-01-13T00:50:27.064Z,4.27
2023-01-13T00:55:35.345Z,3.60
2023-01-13T01:00:37.910Z,4.53
2023-01-13T01:05:40.440Z,3.83
2023-01-13T01:10:43.186Z,3.97
2023-01-13T01:15:47.816Z,3.80
2023-01-13T01:20:50.716Z,3.70
2023-01-13T01:25:53.306Z,4.30
2023-01-13T01:30:58.464Z,4.53
2023-01-13T01:36:02.852Z,4.40
2023-01-13T01:41:05.669Z,4.00
2023-01-13T01:46:08.962Z,3.77
2023-01-13T01:51:13.998Z,4.10
2023-01-13T01:56:19.159Z,4.27
2023-01-13T02:01:22.449Z,3.73
2023-01-13T02:06:25.436Z,4.00
2023-01-13T02:11:54.328Z,3.33
2023-01-13T02:17:21.726Z,3.90
2023-01-13T02:22:30.025Z,3.43
2023-01-13T02:27:56.230Z,4.00
2023-01-13T02:33:27.057Z,3.53
2023-01-13T02:38:35.832Z,3.90
2023-01-13T02:43:59.687Z,3.80
2023-01-13T02:49:06.702Z,5.53
2023-01-13T02:54:14.751Z,3.73
2023-01-13T02:59:19.570Z,3.87
2023-01-13T03:04:54.900Z,3.67
2023-01-13T03:10:09.901Z,4.43
2023-01-13T03:15:57.381Z,4.47
2023-01-13T03:21:08.394Z,4.10
2023-01-13T03:26:32.712Z,4.15
2023-01-13T03:31:42.355Z,4.10
2023-01-13T03:36:49.387Z,4.00
2023-01-13T03:41:59.947Z,4.03
2023-01-13T03:47:15.934Z,3.80
2023-01-13T03:52:36.934Z,4.20
2023-01-13T03:57:47.310Z,3.90
2023-01-13T04:03:05.676Z,3.73
2023-01-13T04:08:25.621Z,4.00
2023-01-13T04:13:32.434Z,4.13
2023-01-13T04:18:37.606Z,4.00
2023-01-13T04:23:40.196Z,4.70
2023-01-13T04:28:42.741Z,4.50
2023-01-13T04:33:45.436Z,4.00
2023-01-13T04:38:48.026Z,4.60
2023-01-13T04:43:50.628Z,4.47
2023-01-13T04:48:53.655Z,4.27
2023-01-13T04:53:56.194Z,4.10
2023-01-13T04:58:58.855Z,4.77
2023-01-13T05:04:01.403Z,3.83
2023-01-13T05:09:04.022Z,4.70
2023-01-13T05:14:25.200Z,4.60
2023-01-13T05:19:33.709Z,4.63
2023-01-13T05:24:55.230Z,3.90
2023-01-13T05:29:57.972Z,4.50
2023-01-13T05:35:00.622Z,4.83
2023-01-13T05:40:22.320Z,4.50
2023-01-13T05:50:27.509Z,3.93
2023-01-13T05:55:30.153Z,3.77
2023-01-13T06:00:32.720Z,3.90
2023-01-13T06:05:35.814Z,4.30
2023-01-13T06:10:38.383Z,4.07
2023-01-13T06:15:41.151Z,4.40
2023-01-13T06:20:43.734Z,4.17
2023-01-13T06:26:02.330Z,3.90
2023-01-13T06:31:07.589Z,4.03
2023-01-13T06:36:19.712Z,4.37
2023-01-13T06:41:42.563Z,3.97
2023-01-13T06:46:45.661Z,4.50
2023-01-13T06:51:48.840Z,4.40
2023-01-13T06:56:51.398Z,4.00
2023-01-13T07:01:54.192Z,3.33
2023-01-13T07:06:56.907Z,3.53
2023-01-13T07:11:59.567Z,3.40
2023-01-13T07:17:02.105Z,3.80
2023-01-13T07:22:04.881Z,3.77
2023-01-13T07:27:07.407Z,3.53
2023-01-13T07:32:10.027Z,3.83
2023-01-13T07:37:12.625Z,4.13
2023-01-13T07:42:33.763Z,4.13
2023-01-13T07:47:36.277Z,4.40
2023-01-13T07:52:38.881Z,4.23
2023-01-13T07:57:41.458Z,4.70
2023-01-13T08:02:44.155Z,4.60
2023-01-13T08:07:46.811Z,5.00
2023-01-13T08:13:12.441Z,3.77
2023-01-13T08:18:15.809Z,3.90
2023-01-13T08:23:22.832Z,4.37
2023-01-13T08:28:25.504Z,5.17
2023-01-13T08:33:29.378Z,4.60
2023-01-13T08:38:32.669Z,5.23
2023-01-13T08:43:35.427Z,5.30
2023-01-13T08:48:38.062Z,4.73
2023-01-13T08:53:40.614Z,5.63
2023-01-13T08:58:43.197Z,5.20
2023-01-13T09:03:45.880Z,5.50
2023-01-13T09:08:48.448Z,5.47
2023-01-13T09:13:51.135Z,5.63
2023-01-13T09:18:53.739Z,6.20
2023-01-13T09:23:56.266Z,6.80
2023-01-13T09:28:58.888Z,5.77
2023-01-13T09:34:21.450Z,5.93
2023-01-13T09:39:24.023Z,5.97
2023-01-13T09:44:37.364Z,5.90
2023-01-13T09:49:42.996Z,5.80
2023-01-13T09:54:49.659Z,5.70
2023-01-13T09:59:52.299Z,5.83
2023-01-13T10:05:16.224Z,6.13
2023-01-13T10:10:27.488Z,5.90
2023-01-13T10:15:30.137Z,6.20
2023-01-13T10:20:49.033Z,6.50
2023-01-13T10:26:00.858Z,5.77
2023-01-13T10:31:10.913Z,6.05
2023-01-13T10:36:21.468Z,6.30
2023-01-13T10:41:29.477Z,8.07
2023-01-13T10:46:34.684Z,6.47
2023-01-13T10:51:40.307Z,5.63
2023-01-13T10:56:45.099Z,5.97
2023-01-13T11:02:13.069Z,5.83
2023-01-13T11:07:46.217Z,5.37
2023-01-13T11:13:12.663Z,5.70
2023-01-13T11:18:40.546Z,5.73
2023-01-13T11:23:50.184Z,5.23
2023-01-13T11:29:02.643Z,5.17
2023-01-13T11:34:14.863Z,5.80
2023-01-13T11:39:39.769Z,6.10
2023-01-13T11:44:50.180Z,5.53
2023-01-13T11:49:52.925Z,5.17
2023-01-13T11:55:17.723Z,5.47
2023-01-13T12:00:32.103Z,5.93
2023-01-13T12:05:42.742Z,5.20
2023-01-13T12:11:01.121Z,5.80
2023-01-13T12:16:09.585Z,5.20
2023-01-13T12:21:21.511Z,6.10
2023-01-13T12:26:24.586Z,6.03
2023-01-13T12:31:28.668Z,6.07
2023-01-13T12:37:01.422Z,6.00
2023-01-13T12:42:40.567Z,6.70
2023-01-13T12:47:45.686Z,6.13
2023-01-13T12:52:49.523Z,6.00
2023-01-13T12:57:56.478Z,6.90
2023-01-13T13:03:11.153Z,7.73
2023-01-13T13:08:57.320Z,5.90
2023-01-13T13:14:01.866Z,6.03
2023-01-13T13:19:22.190Z,7.37
2023-01-13T13:24:26.043Z,7.10
2023-01-13T13:29:46.231Z,7.37
2023-01-13T13:35:14.991Z,7.47
2023-01-13T13:40:36.366Z,7.57
2023-01-13T13:46:08.855Z,9.35
2023-01-13T13:51:40.725Z,8.07
2023-01-13T14:02:00.797Z,8.27
2023-01-13T14:07:18.463Z,8.23
2023-01-13T14:12:26.452Z,8.43
2023-01-13T14:17:30.573Z,7.73
2023-01-13T14:22:33.437Z,7.90
2023-01-13T14:27:43.322Z,8.43
2023-01-13T14:32:49.770Z,11.70
2023-01-13T14:38:02.138Z,10.37
2023-01-13T14:43:12.987Z,9.97
2023-01-13T14:48:15.815Z,9.73
2023-01-13T14:53:35.136Z,8.93
2023-01-13T14:58:37.836Z,9.83
2023-01-13T15:03:42.517Z,10.70
2023-01-13T15:08:45.379Z,10.30
2023-01-13T15:13:59.327Z,10.93
2023-01-13T15:19:01.997Z,11.17
2023-01-13T15:24:05.445Z,11.60
2023-01-13T15:29:15.304Z,11.90
2023-01-13T15:34:17.901Z,10.70
2023-01-13T15:39:20.514Z,9.67
2023-01-13T15:44:49.341Z,11.03
2023-01-13T15:49:51.986Z,10.63
2023-01-13T15:54:55.133Z,11.50
2023-01-13T16:00:04.466Z,10.60
2023-01-13T16:10:24.072Z,10.40
2023-01-13T16:15:26.676Z,11.20
2023-01-13T16:20:29.876Z,10.87
2023-01-13T16:25:32.733Z,11.30
2023-01-13T16:30:37.512Z,11.77
2023-01-13T16:36:10.011Z,11.93
2023-01-13T16:41:02.827Z,10.87
2023-01-13T16:46:22.992Z,11.50
2023-01-13T16:51:25.638Z,10.90
2023-01-13T16:56:34.512Z,10.50
2023-01-13T17:01:39.702Z,12.13
2023-01-13T17:06:48.523Z,12.10
2023-01-13T17:11:52.442Z,11.30
2023-01-13T17:16:57.213Z,12.17
2023-01-13T17:21:59.811Z,11.63
2023-01-13T17:27:03.624Z,11.13
2023-01-13T17:32:06.569Z,11.73
2023-01-13T17:37:10.268Z,12.27
2023-01-13T17:42:13.612Z,11.70
2023-01-13T17:47:16.261Z,11.80
2023-01-13T17:52:19.164Z,11.67
2023-01-13T17:57:21.835Z,11.00
2023-01-13T18:02:25.037Z,12.53
2023-01-13T18:07:27.662Z,11.17
2023-01-13T18:12:31.058Z,12.50
2023-01-13T18:17:34.660Z,11.20
2023-01-13T18:22:56.013Z,12.67
2023-01-13T18:28:02.827Z,11.77
2023-01-13T18:33:05.413Z,11.50
2023-01-13T18:38:08.627Z,11.43
2023-01-13T18:43:11.546Z,12.67
2023-01-13T18:48:14.148Z,13.00
2023-01-13T18:53:16.827Z,12.97
2023-01-13T18:58:20.600Z,12.33
2023-01-13T19:03:30.043Z,11.47
2023-01-13T19:08:33.768Z,12.83
2023-01-13T19:13:37.339Z,10.30
2023-01-13T19:18:40.631Z,10.53
2023-01-13T19:23:43.229Z,10.77
2023-01-13T19:28:45.807Z,25.37
2023-01-13T19:33:48.435Z,10.80
2023-01-13T19:38:50.988Z,10.67
2023-01-13T19:44:12.680Z,11.50
2023-01-13T19:49:16.328Z,10.63
2023-01-13T19:54:18.938Z,10.83
2023-01-13T19:59:28.927Z,10.10
2023-01-13T20:04:38.497Z,10.03
2023-01-13T20:09:45.164Z,10.23
2023-01-13T20:14:48.674Z,10.37
2023-01-13T20:19:51.339Z,11.17
2023-01-13T20:24:55.338Z,11.17
2023-01-13T20:29:58.043Z,12.20
2023-01-13T20:35:00.598Z,11.03
2023-01-13T20:40:05.354Z,10.50
2023-01-13T20:45:08.797Z,10.60
2023-01-13T20:50:11.987Z,10.53
2023-01-13T20:55:15.181Z,10.55
2023-01-13T21:00:18.354Z,10.00
2023-01-13T21:05:20.984Z,10.00
2023-01-13T21:10:23.516Z,11.90
2023-01-13T21:15:27.504Z,9.52
2023-01-13T21:20:30.869Z,10.70
2023-01-13T21:25:35.434Z,9.87
2023-01-13T21:30:39.274Z,22.97
2023-01-13T21:35:44.371Z,12.27
2023-01-13T21:40:46.931Z,10.60
2023-01-13T21:46:08.365Z,10.75
2023-01-13T21:51:10.962Z,10.10
2023-01-13T21:56:13.526Z,10.70
2023-01-13T22:01:16.398Z,9.75
2023-01-13T22:06:19.168Z,8.83
2023-01-13T22:11:21.850Z,9.18
2023-01-13T22:16:25.189Z,10.00
2023-01-13T22:21:27.929Z,9.65
2023-01-13T22:26:30.634Z,9.77
2023-01-13T22:31:33.350Z,8.55
2023-01-13T22:36:36.016Z,10.27
2023-01-13T22:41:38.563Z,8.60
2023-01-13T22:46:41.117Z,9.03
2023-01-13T22:51:44.677Z,11.48
2023-01-13T22:56:47.249Z,10.10
2023-01-13T23:01:49.918Z,8.75
2023-01-13T23:06:52.450Z,8.27
2023-01-13T23:11:54.984Z,8.30
2023-01-13T23:16:57.486Z,9.30
2023-01-13T23:22:00.186Z,8.43
2023-01-13T23:27:02.793Z,9.02
2023-01-13T23:32:05.721Z,9.35
2023-01-13T23:37:08.320Z,9.13
2023-01-13T23:42:10.948Z,8.77
2023-01-13T23:47:13.541Z,9.63
2023-01-13T23:52:16.197Z,9.43
2023-01-13T23:57:18.975Z,9.07
